createdAt,value
2023-02-12T07:32:53.747Z,7.27
2023-02-12T07:33:53.695Z,7.24
2023-02-12T07:34:53.690Z,7.31
2023-02-12T07:35:54.081Z,7.24
2023-02-12T07:36:53.650Z,7.29
2023-02-12T07:37:53.649Z,7.31
2023-02-12T07:38:53.653Z,7.27
2023-02-12T07:39:53.612Z,7.32
2023-02-12T07:40:53.667Z,7.27
2023-02-12T07:41:53.595Z,7.27
2023-02-12T07:42:53.637Z,7.26
2023-02-12T07:43:53.574Z,7.23
2023-02-12T07:44:53.574Z,7.27
2023-02-12T07:45:53.932Z,7.23
2023-02-12T07:46:53.555Z,7.31
2023-02-12T07:47:53.536Z,7.31
2023-02-12T07:48:53.611Z,7.31
2023-02-12T07:49:53.522Z,7.27
2023-02-12T07:50:53.494Z,7.29
2023-02-12T07:51:53.500Z,7.35
2023-02-12T07:52:53.487Z,7.34
2023-02-12T07:53:53.463Z,7.32
2023-02-12T07:54:53.465Z,7.29
2023-02-12T07:55:53.860Z,7.26
2023-02-12T07:56:53.458Z,7.32
2023-02-12T07:57:53.409Z,7.32
2023-02-12T07:58:53.450Z,7.35
2023-02-12T07:59:53.389Z,7.42
2023-02-12T08:00:53.387Z,7.24
2023-02-12T08:01:53.396Z,7.42
2023-02-12T08:02:53.407Z,7.49
2023-02-12T08:03:53.406Z,7.41
2023-02-12T08:04:55.982Z,7.42
2023-02-12T08:05:53.748Z,7.53
2023-02-12T08:06:53.322Z,7.52
2023-02-12T08:07:53.312Z,7.60
2023-02-12T08:08:53.338Z,7.47
2023-02-12T08:09:53.275Z,7.52
2023-02-12T08:10:53.267Z,7.60
2023-02-12T08:11:53.258Z,7.52
2023-02-12T08:12:53.261Z,7.56
2023-02-12T08:13:53.268Z,7.59
2023-02-12T08:14:53.240Z,7.59
2023-02-12T08:15:53.213Z,7.60
2023-02-12T08:16:53.438Z,7.58
2023-02-12T08:17:53.186Z,7.50
2023-02-12T08:18:53.205Z,7.62
2023-02-12T08:19:53.192Z,7.59
2023-02-12T08:20:53.189Z,7.66
2023-02-12T08:21:53.182Z,7.71
2023-02-12T08:22:53.133Z,7.66
2023-02-12T08:23:53.138Z,7.77
2023-02-12T08:24:53.124Z,7.69
2023-02-12T08:25:53.476Z,7.69
2023-02-12T08:26:53.089Z,7.75
2023-02-12T08:27:53.084Z,7.78
2023-02-12T08:28:53.076Z,7.79
2023-02-12T08:29:53.048Z,7.81
2023-02-12T08:30:53.074Z,7.85
2023-02-12T08:31:53.131Z,7.82
2023-02-12T08:32:53.030Z,7.89
2023-02-12T08:33:53.035Z,7.87
2023-02-12T08:34:53.010Z,7.90
2023-02-12T08:35:53.038Z,7.92
2023-02-12T08:36:52.999Z,8.02
2023-02-12T08:37:52.977Z,7.94
2023-02-12T08:38:52.961Z,7.92
2023-02-12T08:39:52.935Z,7.99
2023-02-12T08:40:52.980Z,8.03
2023-02-12T08:41:52.931Z,8.02
2023-02-12T08:42:52.904Z,7.97
2023-02-12T08:43:52.907Z,8.11
2023-02-12T08:44:52.894Z,7.96
2023-02-12T08:45:52.993Z,8.00
2023-02-12T08:46:52.923Z,8.00
2023-02-12T08:47:52.865Z,7.94
2023-02-12T08:48:52.855Z,8.11
2023-02-12T08:49:52.846Z,8.14
2023-02-12T08:50:52.824Z,8.20
2023-02-12T08:51:52.844Z,8.12
2023-02-12T08:52:52.812Z,8.12
2023-02-12T08:53:52.796Z,8.04
2023-02-12T08:54:52.796Z,8.12
2023-02-12T08:55:53.018Z,8.20
2023-02-12T08:56:52.743Z,8.17
2023-02-12T08:57:52.739Z,8.18
2023-02-12T08:58:52.730Z,8.20
2023-02-12T08:59:52.722Z,8.17
2023-02-12T09:00:52.750Z,8.22
2023-02-12T09:01:52.698Z,8.17
2023-02-12T09:02:52.690Z,8.20
2023-02-12T09:03:52.654Z,8.17
2023-02-12T09:04:52.678Z,8.30
2023-02-12T09:05:52.635Z,8.32
2023-02-12T09:06:52.649Z,8.25
2023-02-12T09:07:52.609Z,8.30
2023-02-12T09:08:52.649Z,8.33
2023-02-12T09:09:52.605Z,8.29
2023-02-12T09:10:52.621Z,8.29
2023-02-12T09:11:52.599Z,8.30
2023-02-12T09:12:52.558Z,8.37
2023-02-12T09:13:52.541Z,8.40
2023-02-12T09:14:52.566Z,8.36
2023-02-12T09:15:52.531Z,8.36
2023-02-12T09:16:52.589Z,8.45
2023-02-12T09:17:52.494Z,8.50
2023-02-12T09:18:52.488Z,8.45
2023-02-12T09:19:52.488Z,8.45
2023-02-12T09:20:52.465Z,8.54
2023-02-12T09:21:55.261Z,8.58
2023-02-12T09:22:52.502Z,8.57
2023-02-12T09:23:52.430Z,8.53
2023-02-12T09:24:52.458Z,8.68
2023-02-12T09:25:52.416Z,8.57
2023-02-12T09:26:52.436Z,8.63
2023-02-12T09:27:52.398Z,8.75
2023-02-12T09:28:52.404Z,8.66
2023-02-12T09:29:52.370Z,8.75
2023-02-12T09:30:52.465Z,8.72
2023-02-12T09:31:52.630Z,8.68
2023-02-12T09:32:52.344Z,8.76
2023-02-12T09:33:55.087Z,8.84
2023-02-12T09:34:52.353Z,8.73
2023-02-12T09:35:52.314Z,8.88
2023-02-12T09:36:52.302Z,8.94
2023-02-12T09:37:52.280Z,8.87
2023-02-12T09:38:52.261Z,8.91
2023-02-12T09:39:52.261Z,9.06
2023-02-12T09:40:52.285Z,9.18
2023-02-12T09:41:52.236Z,9.18
2023-02-12T09:42:52.219Z,9.12
2023-02-12T09:43:52.213Z,9.20
2023-02-12T09:44:52.212Z,9.13
2023-02-12T09:45:52.225Z,9.24
2023-02-12T09:46:52.225Z,9.28
2023-02-12T09:47:52.155Z,9.18
2023-02-12T09:48:52.157Z,9.23
2023-02-12T09:49:52.142Z,9.32
2023-02-12T09:50:52.131Z,9.24
2023-02-12T09:51:52.121Z,9.30
2023-02-12T09:52:52.132Z,9.30
2023-02-12T09:53:52.104Z,9.46
2023-02-12T09:54:52.101Z,9.32
2023-02-12T09:55:52.079Z,9.39
2023-02-12T09:56:52.102Z,9.42
2023-02-12T09:57:54.783Z,9.52
2023-02-12T09:58:52.044Z,9.60
2023-02-12T09:59:52.042Z,9.53
2023-02-12T10:00:52.030Z,9.57
2023-02-12T10:01:52.070Z,9.56
2023-02-12T10:02:52.010Z,9.70
2023-02-12T10:03:51.991Z,9.64
2023-02-12T10:05:01.191Z,9.60
2023-02-12T10:05:52.953Z,9.70
2023-02-12T10:06:51.962Z,9.71
2023-02-12T10:07:51.961Z,9.67
2023-02-12T10:08:51.938Z,9.71
2023-02-12T10:09:51.929Z,9.76
2023-02-12T10:10:51.912Z,9.76
2023-02-12T10:11:51.902Z,9.83
2023-02-12T10:12:51.935Z,9.81
2023-02-12T10:13:51.880Z,9.78
2023-02-12T10:14:51.954Z,9.71
2023-02-12T10:15:51.879Z,9.88
2023-02-12T10:16:51.850Z,9.81
2023-02-12T10:17:51.822Z,9.83
2023-02-12T10:18:51.875Z,9.83
2023-02-12T10:19:51.797Z,9.94
2023-02-12T10:20:51.800Z,10.01
2023-02-12T10:21:51.776Z,10.04
2023-02-12T10:22:56.909Z,9.99
2023-02-12T10:23:52.815Z,10.09
2023-02-12T10:24:51.747Z,10.09
2023-02-12T10:25:54.139Z,10.06
2023-02-12T10:26:51.742Z,10.22
2023-02-12T10:27:51.733Z,10.24
2023-02-12T10:28:51.726Z,10.14
2023-02-12T10:29:51.715Z,10.21
2023-02-12T10:30:51.783Z,10.30
2023-02-12T10:31:51.859Z,10.26
2023-02-12T10:32:51.678Z,10.22
2023-02-12T10:33:51.686Z,10.24
2023-02-12T10:34:51.644Z,10.26
2023-02-12T10:35:51.627Z,10.21
2023-02-12T10:36:51.604Z,10.22
2023-02-12T10:37:51.591Z,10.24
2023-02-12T10:38:51.579Z,10.26
2023-02-12T10:39:51.589Z,10.33
2023-02-12T10:40:51.593Z,10.34
2023-02-12T10:41:51.540Z,10.36
2023-02-12T10:42:51.539Z,10.40
2023-02-12T10:43:51.515Z,10.46
2023-02-12T10:44:51.538Z,10.55
2023-02-12T10:45:51.518Z,10.60
2023-02-12T10:46:51.494Z,10.47
2023-02-12T10:47:51.490Z,10.62
2023-02-12T10:48:51.466Z,10.66
2023-02-12T10:49:51.477Z,10.59
2023-02-12T10:50:51.466Z,10.51
2023-02-12T10:51:51.442Z,10.63
2023-02-12T10:52:51.432Z,10.63
2023-02-12T10:53:51.416Z,10.65
2023-02-12T10:54:51.421Z,10.53
2023-02-12T10:55:51.438Z,10.63
2023-02-12T10:56:51.401Z,10.44
2023-02-12T10:57:51.437Z,10.52
2023-02-12T10:58:51.383Z,10.63
2023-02-12T10:59:51.337Z,10.73
2023-02-12T11:00:51.365Z,10.74
2023-02-12T11:01:51.427Z,10.74
2023-02-12T11:02:51.323Z,10.71
2023-02-12T11:03:51.292Z,10.84
2023-02-12T11:04:51.317Z,10.84
2023-02-12T11:05:51.294Z,10.84
2023-02-12T11:06:51.272Z,10.86
2023-02-12T11:07:51.245Z,10.88
2023-02-12T11:08:51.238Z,10.83
2023-02-12T11:09:51.239Z,10.84
2023-02-12T11:10:51.243Z,10.86
2023-02-12T11:11:51.205Z,10.77
2023-02-12T11:12:51.189Z,10.80
2023-02-12T11:13:51.174Z,10.84
2023-02-12T11:14:51.168Z,10.89
2023-02-12T11:15:51.184Z,10.94
2023-02-12T11:16:51.198Z,10.96
2023-02-12T11:17:51.132Z,10.99
2023-02-12T11:18:51.135Z,11.06
2023-02-12T11:19:51.128Z,11.21
2023-02-12T11:20:51.131Z,11.09
2023-02-12T11:21:51.115Z,11.17
2023-02-12T11:22:51.078Z,11.24
2023-02-12T11:23:51.062Z,11.27
2023-02-12T11:24:51.054Z,11.28
2023-02-12T11:25:51.054Z,11.35
2023-02-12T11:26:51.072Z,11.32
2023-02-12T11:27:51.017Z,11.29
2023-02-12T11:28:51.057Z,11.39
2023-02-12T11:29:51.011Z,11.36
2023-02-12T11:30:51.038Z,11.34
2023-02-12T11:31:51.099Z,11.34
2023-02-12T11:32:50.998Z,11.32
2023-02-12T11:33:50.964Z,11.38
2023-02-12T11:34:50.936Z,11.39
2023-02-12T11:35:50.935Z,11.35
2023-02-12T11:36:50.930Z,11.38
2023-02-12T11:37:50.941Z,11.41
2023-02-12T11:38:50.925Z,11.43
2023-02-12T11:39:50.896Z,11.41
2023-02-12T11:40:50.881Z,11.49
2023-02-12T11:41:50.867Z,11.39
2023-02-12T11:42:50.860Z,11.35
2023-02-12T11:43:51.996Z,11.57
2023-02-12T11:44:50.835Z,11.49
2023-02-12T11:45:50.822Z,11.59
2023-02-12T11:46:50.876Z,11.68
2023-02-12T11:47:50.811Z,11.67
2023-02-12T11:48:50.873Z,11.64
2023-02-12T11:49:50.774Z,11.77
2023-02-12T11:50:50.759Z,11.67
2023-02-12T11:51:51.405Z,11.67
2023-02-12T11:52:50.736Z,11.78
2023-02-12T11:53:50.748Z,11.70
2023-02-12T11:54:50.742Z,11.74
2023-02-12T11:55:50.716Z,11.80
2023-02-12T11:56:50.767Z,11.77
2023-02-12T11:57:50.680Z,11.85
2023-02-12T11:58:50.698Z,11.90
2023-02-12T11:59:50.709Z,11.83
2023-02-12T12:00:50.647Z,11.72
2023-02-12T12:01:50.687Z,11.86
2023-02-12T12:02:50.713Z,11.78
2023-02-12T12:03:50.615Z,11.75
2023-02-12T12:04:50.652Z,11.82
2023-02-12T12:05:50.607Z,11.78
2023-02-12T12:06:50.590Z,11.74
2023-02-12T12:07:50.590Z,11.72
2023-02-12T12:08:50.565Z,11.80
2023-02-12T12:09:50.587Z,11.78
2023-02-12T12:10:50.532Z,11.85
2023-02-12T12:11:50.535Z,11.83
2023-02-12T12:12:50.539Z,11.87
2023-02-12T12:13:50.499Z,11.86
2023-02-12T12:14:50.513Z,11.83
2023-02-12T12:15:50.476Z,11.99
2023-02-12T12:16:50.473Z,11.89
2023-02-12T12:17:50.459Z,11.93
2023-02-12T12:18:50.473Z,11.97
2023-02-12T12:19:50.435Z,11.90
2023-02-12T12:20:50.466Z,11.82
2023-02-12T12:21:50.409Z,11.80
2023-02-12T12:22:50.394Z,11.77
2023-02-12T12:23:50.397Z,11.82
2023-02-12T12:24:50.370Z,11.72
2023-02-12T12:25:50.380Z,11.71
2023-02-12T12:26:50.350Z,11.75
2023-02-12T12:27:50.346Z,11.85
2023-02-12T12:28:50.329Z,11.89
2023-02-12T12:29:50.324Z,11.87
2023-02-12T12:30:50.331Z,11.96
2023-02-12T12:31:50.386Z,11.96
2023-02-12T12:32:50.320Z,12.13
2023-02-12T12:33:50.304Z,12.16
2023-02-12T12:34:50.271Z,12.13
2023-02-12T12:35:50.251Z,12.21
2023-02-12T12:36:51.775Z,12.23
2023-02-12T12:37:50.290Z,12.21
2023-02-12T12:38:50.211Z,12.16
2023-02-12T12:39:50.257Z,12.23
2023-02-12T12:40:50.202Z,12.27
2023-02-12T12:41:50.197Z,12.23
2023-02-12T12:42:50.165Z,12.19
2023-02-12T12:43:50.180Z,12.31
2023-02-12T12:44:50.164Z,12.30
2023-02-12T12:45:50.181Z,12.31
2023-02-12T12:46:50.122Z,12.44
2023-02-12T12:47:50.121Z,12.39
2023-02-12T12:48:50.122Z,12.37
2023-02-12T12:49:50.147Z,12.44
2023-02-12T12:50:50.077Z,12.57
2023-02-12T12:51:50.085Z,12.60
2023-02-12T12:52:50.076Z,12.54
2023-02-12T12:53:50.061Z,12.63
2023-02-12T12:54:50.028Z,12.54
2023-02-12T12:55:50.044Z,12.48
2023-02-12T12:56:50.011Z,12.54
2023-02-12T12:57:50.003Z,12.41
2023-02-12T12:58:50.001Z,12.54
2023-02-12T12:59:49.978Z,12.48
2023-02-12T13:00:50.030Z,12.59
2023-02-12T13:01:49.991Z,12.62
2023-02-12T13:02:49.942Z,12.59
2023-02-12T13:03:49.934Z,12.78
2023-02-12T13:04:49.917Z,12.63
2023-02-12T13:05:49.914Z,12.66
2023-02-12T13:06:49.918Z,12.66
2023-02-12T13:07:49.939Z,12.69
2023-02-12T13:08:49.916Z,12.75
2023-02-12T13:09:49.865Z,12.71
2023-02-12T13:10:49.854Z,12.70
2023-02-12T13:11:49.857Z,12.71
2023-02-12T13:12:49.842Z,12.66
2023-02-12T13:13:49.837Z,12.57
2023-02-12T13:14:49.810Z,12.64
2023-02-12T13:15:49.799Z,12.63
2023-02-12T13:16:49.849Z,12.69
2023-02-12T13:17:49.778Z,12.63
2023-02-12T13:18:49.776Z,12.64
2023-02-12T13:19:49.789Z,12.59
2023-02-12T13:20:49.738Z,12.66
2023-02-12T13:21:49.744Z,12.62
2023-02-12T13:22:49.728Z,12.60
2023-02-12T13:23:49.721Z,12.57
2023-02-12T13:24:49.818Z,12.59
2023-02-12T13:25:49.726Z,12.69
2023-02-12T13:26:49.684Z,12.52
2023-02-12T13:27:49.679Z,12.49
2023-02-12T13:28:49.674Z,12.59
2023-02-12T13:29:49.646Z,12.60
2023-02-12T13:30:49.762Z,12.56
2023-02-12T13:31:49.790Z,12.54
2023-02-12T13:32:49.603Z,12.49
2023-02-12T13:33:49.596Z,12.46
2023-02-12T13:34:49.595Z,12.56
2023-02-12T13:35:49.590Z,12.41
2023-02-12T13:36:49.582Z,12.45
2023-02-12T13:37:49.561Z,12.49
2023-02-12T13:38:49.547Z,12.45
2023-02-12T13:39:49.528Z,12.52
2023-02-12T13:40:49.536Z,12.56
2023-02-12T13:41:49.540Z,12.52
2023-02-12T13:42:49.490Z,12.48
2023-02-12T13:43:49.504Z,12.51
2023-02-12T13:44:49.479Z,12.52
2023-02-12T13:45:49.594Z,12.52
2023-02-12T13:46:49.461Z,12.51
2023-02-12T13:47:49.452Z,12.46
2023-02-12T13:48:49.424Z,12.45
2023-02-12T13:49:49.431Z,12.44
2023-02-12T13:50:49.414Z,12.46
2023-02-12T13:51:49.401Z,12.45
2023-02-12T13:52:49.374Z,12.56
2023-02-12T13:53:49.393Z,12.34
2023-02-12T13:54:49.372Z,12.42
2023-02-12T13:55:49.346Z,12.48
2023-02-12T13:56:49.374Z,12.42
2023-02-12T13:57:49.333Z,12.49
2023-02-12T13:58:49.324Z,12.42
2023-02-12T13:59:49.353Z,12.44
2023-02-12T14:00:49.304Z,12.49
2023-02-12T14:01:49.478Z,12.51
2023-02-12T14:02:49.462Z,12.49
2023-02-12T14:03:49.270Z,12.37
2023-02-12T14:04:49.238Z,12.46
2023-02-12T14:05:49.268Z,12.46
2023-02-12T14:06:49.219Z,12.37
2023-02-12T14:07:49.229Z,12.20
2023-02-12T14:08:49.194Z,12.21
2023-02-12T14:09:49.196Z,12.21
2023-02-12T14:10:49.181Z,12.19
2023-02-12T14:11:49.179Z,12.11
2023-02-12T14:12:49.186Z,12.06
2023-02-12T14:13:49.147Z,12.01
2023-02-12T14:14:49.158Z,11.96
2023-02-12T14:15:49.218Z,12.01
2023-02-12T14:16:49.099Z,12.06
2023-02-12T14:17:50.610Z,12.09
2023-02-12T14:18:49.093Z,12.08
2023-02-12T14:19:49.083Z,12.08
2023-02-12T14:20:49.061Z,12.11
2023-02-12T14:21:49.075Z,12.12
2023-02-12T14:22:49.044Z,12.05
2023-02-12T14:23:49.023Z,12.06
2023-02-12T14:24:49.030Z,12.09
2023-02-12T14:25:49.014Z,12.15
2023-02-12T14:26:49.024Z,12.13
2023-02-12T14:27:48.994Z,12.13
2023-02-12T14:28:48.997Z,12.09
2023-02-12T14:29:48.970Z,12.15
2023-02-12T14:30:49.094Z,12.12
2023-02-12T14:31:49.040Z,12.11
2023-02-12T14:32:48.935Z,12.11
2023-02-12T14:33:48.934Z,12.20
2023-02-12T14:34:48.898Z,12.21
2023-02-12T14:35:48.901Z,12.09
2023-02-12T14:36:48.888Z,12.21
2023-02-12T14:37:48.899Z,12.01
2023-02-12T14:38:48.849Z,12.11
2023-02-12T14:39:48.886Z,12.11
2023-02-12T14:40:48.845Z,12.04
2023-02-12T14:41:48.833Z,12.08
2023-02-12T14:42:48.839Z,12.02
2023-02-12T14:43:48.806Z,12.06
2023-02-12T14:44:48.821Z,12.05
2023-02-12T14:45:48.787Z,11.96
2023-02-12T14:46:48.788Z,12.09
2023-02-12T14:47:48.767Z,12.09
2023-02-12T14:48:48.751Z,12.06
2023-02-12T14:49:48.725Z,12.12
2023-02-12T14:50:48.730Z,12.05
2023-02-12T14:51:48.704Z,12.04
2023-02-12T14:52:48.722Z,12.02
2023-02-12T14:53:48.695Z,11.86
2023-02-12T14:54:48.677Z,11.94
2023-02-12T14:55:48.658Z,11.97
2023-02-12T14:56:48.658Z,11.94
2023-02-12T14:57:48.649Z,11.97
2023-02-12T14:58:48.646Z,11.94
2023-02-12T14:59:48.614Z,11.94
2023-02-12T15:00:48.657Z,11.90
2023-02-12T15:01:48.632Z,11.90
2023-02-12T15:02:48.574Z,11.80
2023-02-12T15:03:48.573Z,11.72
2023-02-12T15:04:48.605Z,11.70
2023-02-12T15:05:48.560Z,11.57
2023-02-12T15:06:48.529Z,11.77
2023-02-12T15:07:48.544Z,11.71
2023-02-12T15:08:48.519Z,11.64
2023-02-12T15:09:48.513Z,11.64
2023-02-12T15:10:48.500Z,11.67
2023-02-12T15:11:48.476Z,11.67
2023-02-12T15:12:48.485Z,11.70
2023-02-12T15:13:48.467Z,11.78
2023-02-12T15:14:48.453Z,11.64
2023-02-12T15:15:48.457Z,11.70
2023-02-12T15:16:48.504Z,11.64
2023-02-12T15:17:48.426Z,11.77
2023-02-12T15:18:48.409Z,11.74
2023-02-12T15:19:48.385Z,11.71
2023-02-12T15:20:48.371Z,11.75
2023-02-12T15:21:48.365Z,11.75
2023-02-12T15:22:48.366Z,11.67
2023-02-12T15:23:48.356Z,11.70
2023-02-12T15:24:48.339Z,11.77
2023-02-12T15:25:48.318Z,11.71
2023-02-12T15:26:48.319Z,11.72
2023-02-12T15:27:48.330Z,11.74
2023-02-12T15:28:48.292Z,11.82
2023-02-12T15:29:48.274Z,11.77
2023-02-12T15:30:48.348Z,11.70
2023-02-12T15:31:48.521Z,11.67
2023-02-12T15:32:48.277Z,11.70
2023-02-12T15:33:48.246Z,11.72
2023-02-12T15:34:48.218Z,11.71
2023-02-12T15:35:48.217Z,11.71
2023-02-12T15:36:48.203Z,11.50
2023-02-12T15:37:48.205Z,11.65
2023-02-12T15:38:48.182Z,11.61
2023-02-12T15:39:48.159Z,11.61
2023-02-12T15:40:48.159Z,11.47
2023-02-12T15:41:48.139Z,11.50
2023-02-12T15:42:48.153Z,11.47
2023-02-12T15:43:48.129Z,11.50
2023-02-12T15:44:48.098Z,11.53
2023-02-12T15:45:48.092Z,11.50
2023-02-12T15:46:48.111Z,11.59
2023-02-12T15:47:48.078Z,11.52
2023-02-12T15:48:48.087Z,11.56
2023-02-12T15:49:48.071Z,11.47
2023-02-12T15:50:48.054Z,11.46
2023-02-12T15:51:48.032Z,11.49
2023-02-12T15:52:48.031Z,11.44
2023-02-12T15:53:48.002Z,11.49
2023-02-12T15:54:47.993Z,11.41
2023-02-12T15:55:47.992Z,11.38
2023-02-12T15:56:47.966Z,11.49
2023-02-12T15:57:47.962Z,11.49
2023-02-12T15:58:47.947Z,11.39
2023-02-12T15:59:47.942Z,11.44
2023-02-12T16:00:47.940Z,11.43
2023-02-12T16:01:48.030Z,11.41
2023-02-12T16:02:47.920Z,11.39
2023-02-12T16:03:47.919Z,11.38
2023-02-12T16:04:47.900Z,11.38
2023-02-12T16:05:47.862Z,11.43
2023-02-12T16:06:47.866Z,11.43
2023-02-12T16:07:47.841Z,11.34
2023-02-12T16:08:47.870Z,11.39
2023-02-12T16:09:47.844Z,11.32
2023-02-12T16:10:47.806Z,11.34
2023-02-12T16:11:47.797Z,11.29
2023-02-12T16:12:47.800Z,11.32
2023-02-12T16:13:47.808Z,11.25
2023-02-12T16:14:47.795Z,11.35
2023-02-12T16:15:47.833Z,11.27
2023-02-12T16:16:47.752Z,11.21
2023-02-12T16:17:47.740Z,11.25
2023-02-12T16:18:47.716Z,11.21
2023-02-12T16:19:47.700Z,11.24
2023-02-12T16:20:47.759Z,11.17
2023-02-12T16:21:47.683Z,11.16
2023-02-12T16:22:47.677Z,11.24
2023-02-12T16:23:47.669Z,11.21
2023-02-12T16:24:47.661Z,11.17
2023-02-12T16:25:47.653Z,11.14
2023-02-12T16:26:47.688Z,11.10
2023-02-12T16:27:47.621Z,11.13
2023-02-12T16:28:47.615Z,11.17
2023-02-12T16:29:47.591Z,11.01
2023-02-12T16:30:47.579Z,11.07
2023-02-12T16:31:47.733Z,11.16
2023-02-12T16:32:48.025Z,11.17
2023-02-12T16:33:47.554Z,11.11
2023-02-12T16:34:47.534Z,11.01
2023-02-12T16:35:47.530Z,11.06
2023-02-12T16:36:47.538Z,11.02
2023-02-12T16:37:47.527Z,11.02
2023-02-12T16:38:47.494Z,11.06
2023-02-12T16:39:47.483Z,11.09
2023-02-12T16:40:47.482Z,11.09
2023-02-12T16:41:47.463Z,10.99
2023-02-12T16:42:47.474Z,11.01
2023-02-12T16:43:47.446Z,11.10
2023-02-12T16:44:47.431Z,10.92
2023-02-12T16:45:47.545Z,10.98
2023-02-12T16:46:47.409Z,11.10
2023-02-12T16:47:47.393Z,10.95
2023-02-12T16:48:49.175Z,10.94
2023-02-12T16:49:47.360Z,11.01
2023-02-12T16:50:47.356Z,10.88
2023-02-12T16:51:47.349Z,10.98
2023-02-12T16:52:47.378Z,10.99
2023-02-12T16:53:47.327Z,10.96
2023-02-12T16:54:47.324Z,11.01
2023-02-12T16:55:47.319Z,11.01
2023-02-12T16:56:47.298Z,11.03
2023-02-12T16:57:47.267Z,11.09
2023-02-12T16:58:47.275Z,10.95
2023-02-12T16:59:47.249Z,10.99
2023-02-12T17:00:47.338Z,10.95
2023-02-12T17:01:47.225Z,11.03
2023-02-12T17:02:47.253Z,10.95
2023-02-12T17:03:47.323Z,10.94
2023-02-12T17:04:47.207Z,10.86
2023-02-12T17:05:47.190Z,10.99
2023-02-12T17:06:47.194Z,10.89
2023-02-12T17:07:47.158Z,10.81
2023-02-12T17:08:47.195Z,10.89
2023-02-12T17:09:47.131Z,10.92
2023-02-12T17:10:47.138Z,10.84
2023-02-12T17:11:47.109Z,10.83
2023-02-12T17:12:47.132Z,10.88
2023-02-12T17:13:47.102Z,10.94
2023-02-12T17:14:47.081Z,10.86
2023-02-12T17:15:47.077Z,10.77
2023-02-12T17:16:47.156Z,10.86
2023-02-12T17:17:47.085Z,10.86
2023-02-12T17:18:47.096Z,10.92
2023-02-12T17:19:47.033Z,10.84
2023-02-12T17:20:47.010Z,10.89
2023-02-12T17:21:47.003Z,10.95
2023-02-12T17:22:47.027Z,10.94
2023-02-12T17:23:46.986Z,10.84
2023-02-12T17:24:47.006Z,10.95
2023-02-12T17:25:46.962Z,10.86
2023-02-12T17:26:46.967Z,10.89
2023-02-12T17:27:46.937Z,10.88
2023-02-12T17:28:46.923Z,10.86
2023-02-12T17:29:46.912Z,10.89
2023-02-12T17:30:46.903Z,10.88
2023-02-12T17:31:47.000Z,10.84
2023-02-12T17:32:46.924Z,10.81
2023-02-12T17:33:46.861Z,10.84
2023-02-12T17:34:49.171Z,10.78
2023-02-12T17:35:46.856Z,10.84
2023-02-12T17:36:46.843Z,10.84
2023-02-12T17:37:46.833Z,10.86
2023-02-12T17:38:46.831Z,10.77
2023-02-12T17:39:46.808Z,10.80
2023-02-12T17:40:46.810Z,10.80
2023-02-12T17:41:46.768Z,10.81
2023-02-12T17:42:46.763Z,10.89
2023-02-12T17:43:46.745Z,10.80
2023-02-12T17:44:46.765Z,10.86
2023-02-12T17:45:46.825Z,10.77
2023-02-12T17:46:46.726Z,10.80
2023-02-12T17:47:46.701Z,10.78
2023-02-12T17:48:46.706Z,10.78
2023-02-12T17:49:46.701Z,10.78
2023-02-12T17:50:46.691Z,10.76
2023-02-12T17:51:46.671Z,10.78
2023-02-12T17:52:46.661Z,10.84
2023-02-12T17:53:46.648Z,10.83
2023-02-12T17:54:46.626Z,10.78
2023-02-12T17:55:46.630Z,10.71
2023-02-12T17:56:46.674Z,10.71
2023-02-12T17:57:46.587Z,10.71
2023-02-12T17:58:46.581Z,10.73
2023-02-12T17:59:46.563Z,10.70
2023-02-12T18:00:46.570Z,10.70
2023-02-12T18:01:46.553Z,10.68
2023-02-12T18:02:46.560Z,10.65
2023-02-12T18:03:46.531Z,10.78
2023-02-12T18:04:46.555Z,10.70
2023-02-12T18:05:46.509Z,10.70
2023-02-12T18:06:46.504Z,10.76
2023-02-12T18:07:46.489Z,10.70
2023-02-12T18:08:46.489Z,10.66
2023-02-12T18:09:46.450Z,10.73
2023-02-12T18:10:46.444Z,10.68
2023-02-12T18:11:46.449Z,10.71
2023-02-12T18:12:46.458Z,10.66
2023-02-12T18:13:46.422Z,10.70
2023-02-12T18:14:46.397Z,10.74
2023-02-12T18:15:46.389Z,10.78
2023-02-12T18:16:46.471Z,10.70
2023-02-12T18:17:46.376Z,10.66
2023-02-12T18:18:46.350Z,10.65
2023-02-12T18:19:46.363Z,10.73
2023-02-12T18:20:46.329Z,10.80
2023-02-12T18:21:46.322Z,10.73
2023-02-12T18:22:46.319Z,10.65
2023-02-12T18:23:46.299Z,10.74
2023-02-12T18:24:46.281Z,10.73
2023-02-12T18:25:46.316Z,10.71
2023-02-12T18:26:46.260Z,10.74
2023-02-12T18:27:46.261Z,10.71
2023-02-12T18:28:46.288Z,10.66
2023-02-12T18:29:46.245Z,10.63
2023-02-12T18:30:46.309Z,10.74
2023-02-12T18:31:46.372Z,10.71
2023-02-12T18:32:46.208Z,10.66
2023-02-12T18:33:46.191Z,10.73
2023-02-12T18:34:46.182Z,10.74
2023-02-12T18:35:46.169Z,10.68
2023-02-12T18:36:46.160Z,10.66
2023-02-12T18:37:46.166Z,10.66
2023-02-12T18:38:46.141Z,10.73
2023-02-12T18:39:46.112Z,10.70
2023-02-12T18:40:46.110Z,10.74
2023-02-12T18:41:46.099Z,10.65
2023-02-12T18:42:46.097Z,10.73
2023-02-12T18:43:46.120Z,10.68
2023-02-12T18:44:46.100Z,10.71
2023-02-12T18:45:46.048Z,10.70
2023-02-12T18:46:46.033Z,10.80
2023-02-12T18:47:46.032Z,10.76
2023-02-12T18:48:46.024Z,10.76
2023-02-12T18:49:46.021Z,10.70
2023-02-12T18:50:45.985Z,10.68
2023-02-12T18:51:46.004Z,10.74
2023-02-12T18:52:45.978Z,10.76
2023-02-12T18:53:45.949Z,10.74
2023-02-12T18:54:45.966Z,10.73
2023-02-12T18:55:45.926Z,10.76
2023-02-12T18:56:45.931Z,10.70
2023-02-12T18:57:45.915Z,10.76
2023-02-12T18:58:45.897Z,10.71
2023-02-12T18:59:45.923Z,10.73
2023-02-12T19:00:45.898Z,10.65
2023-02-12T19:01:45.931Z,10.66
2023-02-12T19:02:45.865Z,10.66
2023-02-12T19:03:45.849Z,10.65
2023-02-12T19:04:45.883Z,10.65
2023-02-12T19:05:45.823Z,10.62
2023-02-12T19:06:45.820Z,10.63
2023-02-12T19:07:45.801Z,10.59
2023-02-12T19:08:45.788Z,10.63
2023-02-12T19:09:45.791Z,10.53
2023-02-12T19:10:45.768Z,10.60
2023-02-12T19:11:45.763Z,10.59
2023-02-12T19:12:45.740Z,10.56
2023-02-12T19:13:45.718Z,10.65
2023-02-12T19:14:45.743Z,10.63
2023-02-12T19:15:45.759Z,10.52
2023-02-12T19:16:45.727Z,10.51
2023-02-12T19:17:45.686Z,10.59
2023-02-12T19:18:45.683Z,10.62
2023-02-12T19:19:45.679Z,10.53
2023-02-12T19:20:45.665Z,10.55
2023-02-12T19:21:45.626Z,10.62
2023-02-12T19:22:46.506Z,10.44
2023-02-12T19:23:45.633Z,10.55
2023-02-12T19:24:47.146Z,10.46
2023-02-12T19:25:45.600Z,10.53
2023-02-12T19:26:45.589Z,10.53
2023-02-12T19:27:45.574Z,10.44
2023-02-12T19:28:45.570Z,10.43
2023-02-12T19:29:45.570Z,10.47
2023-02-12T19:30:45.589Z,10.39
2023-02-12T19:31:45.622Z,10.43
2023-02-12T19:32:45.534Z,10.40
2023-02-12T19:33:45.491Z,10.44
2023-02-12T19:34:45.497Z,10.40
2023-02-12T19:35:45.522Z,10.52
2023-02-12T19:36:45.464Z,10.36
2023-02-12T19:37:45.457Z,10.42
2023-02-12T19:38:45.456Z,10.47
2023-02-12T19:39:45.433Z,10.42
2023-02-12T19:40:45.416Z,10.43
2023-02-12T19:41:45.442Z,10.42
2023-02-12T19:42:45.398Z,10.44
2023-02-12T19:43:45.397Z,10.33
2023-02-12T19:44:45.373Z,10.42
2023-02-12T19:45:45.372Z,10.44
2023-02-12T19:46:45.360Z,10.42
2023-02-12T19:47:45.364Z,10.52
2023-02-12T19:48:45.367Z,10.40
2023-02-12T19:49:45.334Z,10.39
2023-02-12T19:50:45.307Z,10.33
2023-02-12T19:51:45.294Z,10.33
2023-02-12T19:52:45.302Z,10.43
2023-02-12T19:53:45.295Z,10.36
2023-02-12T19:54:45.282Z,10.36
2023-02-12T19:55:45.259Z,10.39
2023-02-12T19:56:45.288Z,10.33
2023-02-12T19:57:45.237Z,10.34
2023-02-12T19:58:45.228Z,10.42
2023-02-12T19:59:45.216Z,10.33
2023-02-12T20:00:45.194Z,10.39
2023-02-12T20:01:45.290Z,10.25
2023-02-12T20:02:45.253Z,10.24
2023-02-12T20:03:45.160Z,10.26
2023-02-12T20:04:45.228Z,10.32
2023-02-12T20:05:45.139Z,10.14
2023-02-12T20:06:45.141Z,10.21
2023-02-12T20:07:45.116Z,10.25
2023-02-12T20:08:45.114Z,10.21
2023-02-12T20:09:45.104Z,10.30
2023-02-12T20:10:45.238Z,10.22
2023-02-12T20:11:45.067Z,10.24
2023-02-12T20:12:45.069Z,10.26
2023-02-12T20:13:45.060Z,10.15
2023-02-12T20:14:45.029Z,10.24
2023-02-12T20:15:45.061Z,10.24
2023-02-12T20:16:45.023Z,10.24
2023-02-12T20:17:45.015Z,10.10
2023-02-12T20:18:45.001Z,10.18
2023-02-12T20:19:44.986Z,10.19
2023-02-12T20:20:45.008Z,10.25
2023-02-12T20:21:44.986Z,10.26
2023-02-12T20:22:44.941Z,10.21
2023-02-12T20:23:44.933Z,10.19
2023-02-12T20:24:44.922Z,10.14
2023-02-12T20:25:44.930Z,10.18
2023-02-12T20:26:44.897Z,10.26
2023-02-12T20:27:44.911Z,10.22
2023-02-12T20:28:44.875Z,10.17
2023-02-12T20:29:44.870Z,10.17
2023-02-12T20:30:44.874Z,10.19